sensor_id;sensor_type;location;lat;lon;timestamp;P1;durP1;ratioP1;P2;durP2;ratioP2
5831;SDS011;50943;51.448;7.646;2024-03-08T00:00:58;34.97;;;17.77;;
5831;SDS011;50943;51.448;7.646;2024-03-08T00:03:25;35.00;;;17.93;;
5831;SDS011;50943;51.448;7.646;2024-03-08T00:05:51;28.03;;;15.93;;
5831;SDS011;50943;51.448;7.646;2024-03-08T00:08:20;40.50;;;18.67;;
5831;SDS011;50943;51.448;7.646;2024-03-08T00:10:46;35.33;;;18.30;;
5831;SDS011;50943;51.448;7.646;2024-03-08T00:13:13;39.10;;;19.50;;
5831;SDS011;50943;51.448;7.646;2024-03-08T00:15:39;33.27;;;17.60;;
5831;SDS011;50943;51.448;7.646;2024-03-08T00:18:07;35.13;;;18.23;;
5831;SDS011;50943;51.448;7.646;2024-03-08T00:20:34;32.70;;;16.80;;
5831;SDS011;50943;51.448;7.646;2024-03-08T00:23:00;32.33;;;16.33;;
5831;SDS011;50943;51.448;7.646;2024-03-08T00:25:28;38.70;;;18.33;;
5831;SDS011;50943;51.448;7.646;2024-03-08T00:27:55;33.67;;;17.70;;
5831;SDS011;50943;51.448;7.646;2024-03-08T00:30:22;31.03;;;15.47;;
5831;SDS011;50943;51.448;7.646;2024-03-08T00:32:50;33.30;;;18.30;;
5831;SDS011;50943;51.448;7.646;2024-03-08T00:35:17;34.33;;;17.17;;
5831;SDS011;50943;51.448;7.646;2024-03-08T00:37:44;37.30;;;18.40;;
5831;SDS011;50943;51.448;7.646;2024-03-08T00:40:12;38.67;;;18.70;;
5831;SDS011;50943;51.448;7.646;2024-03-08T00:42:40;36.53;;;18.10;;
5831;SDS011;50943;51.448;7.646;2024-03-08T00:45:09;35.13;;;17.90;;
5831;SDS011;50943;51.448;7.646;2024-03-08T00:47:36;32.90;;;17.30;;
5831;SDS011;50943;51.448;7.646;2024-03-08T00:50:03;37.93;;;17.53;;
5831;SDS011;50943;51.448;7.646;2024-03-08T00:52:30;33.17;;;17.73;;
5831;SDS011;50943;51.448;7.646;2024-03-08T00:54:56;33.10;;;17.80;;
5831;SDS011;50943;51.448;7.646;2024-03-08T00:57:23;38.33;;;17.30;;
5831;SDS011;50943;51.448;7.646;2024-03-08T00:59:50;35.00;;;18.10;;
5831;SDS011;50943;51.448;7.646;2024-03-08T01:02:17;40.60;;;18.70;;
5831;SDS011;50943;51.448;7.646;2024-03-08T01:04:44;31.80;;;18.47;;
5831;SDS011;50943;51.448;7.646;2024-03-08T01:07:12;34.47;;;17.57;;
5831;SDS011;50943;51.448;7.646;2024-03-08T01:09:39;36.17;;;17.60;;
5831;SDS011;50943;51.448;7.646;2024-03-08T01:12:05;31.83;;;17.80;;
5831;SDS011;50943;51.448;7.646;2024-03-08T01:14:33;36.60;;;18.07;;
5831;SDS011;50943;51.448;7.646;2024-03-08T01:17:01;32.57;;;16.10;;
5831;SDS011;50943;51.448;7.646;2024-03-08T01:19:27;32.57;;;16.60;;
5831;SDS011;50943;51.448;7.646;2024-03-08T01:21:54;36.80;;;17.33;;
5831;SDS011;50943;51.448;7.646;2024-03-08T01:24:21;37.20;;;18.17;;
5831;SDS011;50943;51.448;7.646;2024-03-08T01:26:48;32.33;;;16.13;;
5831;SDS011;50943;51.448;7.646;2024-03-08T01:29:14;33.57;;;16.47;;
5831;SDS011;50943;51.448;7.646;2024-03-08T01:31:41;29.40;;;15.53;;
5831;SDS011;50943;51.448;7.646;2024-03-08T01:34:09;37.53;;;17.97;;
5831;SDS011;50943;51.448;7.646;2024-03-08T01:36:36;36.73;;;18.63;;
5831;SDS011;50943;51.448;7.646;2024-03-08T01:39:03;37.13;;;17.23;;
5831;SDS011;50943;51.448;7.646;2024-03-08T01:41:33;34.87;;;17.10;;
5831;SDS011;50943;51.448;7.646;2024-03-08T01:44:00;33.67;;;16.80;;
5831;SDS011;50943;51.448;7.646;2024-03-08T01:46:27;37.80;;;18.20;;
5831;SDS011;50943;51.448;7.646;2024-03-08T01:48:54;33.40;;;17.17;;
5831;SDS011;50943;51.448;7.646;2024-03-08T01:51:23;32.17;;;16.90;;
5831;SDS011;50943;51.448;7.646;2024-03-08T01:53:49;36.60;;;17.67;;
5831;SDS011;50943;51.448;7.646;2024-03-08T01:56:16;36.80;;;17.20;;
5831;SDS011;50943;51.448;7.646;2024-03-08T01:58:44;38.50;;;17.70;;
5831;SDS011;50943;51.448;7.646;2024-03-08T02:01:12;41.57;;;17.10;;
5831;SDS011;50943;51.448;7.646;2024-03-08T02:03:39;37.37;;;17.20;;
5831;SDS011;50943;51.448;7.646;2024-03-08T02:06:08;33.40;;;16.13;;
5831;SDS011;50943;51.448;7.646;2024-03-08T02:08:37;31.97;;;16.07;;
5831;SDS011;50943;51.448;7.646;2024-03-08T02:11:03;38.30;;;16.83;;
5831;SDS011;50943;51.448;7.646;2024-03-08T02:13:30;35.77;;;17.30;;
5831;SDS011;50943;51.448;7.646;2024-03-08T02:15:57;35.17;;;17.70;;
5831;SDS011;50943;51.448;7.646;2024-03-08T02:18:25;35.27;;;17.10;;
5831;SDS011;50943;51.448;7.646;2024-03-08T02:20:53;36.23;;;16.03;;
5831;SDS011;50943;51.448;7.646;2024-03-08T02:23:20;34.57;;;17.60;;
5831;SDS011;50943;51.448;7.646;2024-03-08T02:25:47;39.90;;;17.27;;
5831;SDS011;50943;51.448;7.646;2024-03-08T02:28:14;32.63;;;16.37;;
5831;SDS011;50943;51.448;7.646;2024-03-08T02:30:40;42.23;;;17.50;;
5831;SDS011;50943;51.448;7.646;2024-03-08T02:33:07;38.20;;;17.30;;
5831;SDS011;50943;51.448;7.646;2024-03-08T02:35:35;36.70;;;16.50;;
5831;SDS011;50943;51.448;7.646;2024-03-08T02:38:03;36.67;;;16.67;;
5831;SDS011;50943;51.448;7.646;2024-03-08T02:40:30;47.33;;;18.47;;
5831;SDS011;50943;51.448;7.646;2024-03-08T02:42:57;35.73;;;16.70;;
5831;SDS011;50943;51.448;7.646;2024-03-08T02:45:23;46.20;;;16.53;;
5831;SDS011;50943;51.448;7.646;2024-03-08T02:47:50;36.03;;;17.67;;
5831;SDS011;50943;51.448;7.646;2024-03-08T02:50:17;34.93;;;16.80;;
5831;SDS011;50943;51.448;7.646;2024-03-08T02:52:44;39.00;;;18.67;;
5831;SDS011;50943;51.448;7.646;2024-03-08T02:55:12;36.50;;;17.33;;
5831;SDS011;50943;51.448;7.646;2024-03-08T02:57:41;33.37;;;17.30;;
5831;SDS011;50943;51.448;7.646;2024-03-08T03:00:08;37.30;;;17.00;;
5831;SDS011;50943;51.448;7.646;2024-03-08T03:02:36;34.70;;;16.57;;
5831;SDS011;50943;51.448;7.646;2024-03-08T03:05:03;34.23;;;17.13;;
5831;SDS011;50943;51.448;7.646;2024-03-08T03:07:30;35.40;;;15.30;;
5831;SDS011;50943;51.448;7.646;2024-03-08T03:09:58;38.90;;;17.40;;
5831;SDS011;50943;51.448;7.646;2024-03-08T03:12:26;37.20;;;17.13;;
5831;SDS011;50943;51.448;7.646;2024-03-08T03:14:53;36.13;;;17.10;;
5831;SDS011;50943;51.448;7.646;2024-03-08T03:17:20;33.83;;;17.40;;
5831;SDS011;50943;51.448;7.646;2024-03-08T03:19:47;45.87;;;18.57;;
5831;SDS011;50943;51.448;7.646;2024-03-08T03:22:13;36.93;;;17.50;;
5831;SDS011;50943;51.448;7.646;2024-03-08T03:24:40;34.83;;;17.50;;
5831;SDS011;50943;51.448;7.646;2024-03-08T03:27:07;41.90;;;20.20;;
5831;SDS011;50943;51.448;7.646;2024-03-08T03:29:38;37.97;;;17.17;;
5831;SDS011;50943;51.448;7.646;2024-03-08T03:32:05;40.70;;;17.57;;
5831;SDS011;50943;51.448;7.646;2024-03-08T03:34:33;36.27;;;16.27;;
5831;SDS011;50943;51.448;7.646;2024-03-08T03:37:01;38.40;;;17.50;;
5831;SDS011;50943;51.448;7.646;2024-03-08T03:39:28;38.30;;;17.60;;
5831;SDS011;50943;51.448;7.646;2024-03-08T03:41:56;48.50;;;19.20;;
5831;SDS011;50943;51.448;7.646;2024-03-08T03:44:23;41.40;;;17.97;;
5831;SDS011;50943;51.448;7.646;2024-03-08T03:46:51;39.23;;;17.93;;
5831;SDS011;50943;51.448;7.646;2024-03-08T03:49:18;42.40;;;18.60;;
5831;SDS011;50943;51.448;7.646;2024-03-08T03:51:44;35.83;;;18.50;;
5831;SDS011;50943;51.448;7.646;2024-03-08T03:54:11;41.57;;;19.03;;
5831;SDS011;50943;51.448;7.646;2024-03-08T03:56:38;40.53;;;18.43;;
5831;SDS011;50943;51.448;7.646;2024-03-08T03:59:05;39.57;;;17.20;;
5831;SDS011;50943;51.448;7.646;2024-03-08T04:01:32;41.40;;;19.27;;
5831;SDS011;50943;51.448;7.646;2024-03-08T04:04:00;41.03;;;19.33;;
5831;SDS011;50943;51.448;7.646;2024-03-08T04:06:27;38.20;;;17.10;;
5831;SDS011;50943;51.448;7.646;2024-03-08T04:08:53;37.97;;;18.20;;
5831;SDS011;50943;51.448;7.646;2024-03-08T04:11:20;42.43;;;17.70;;
5831;SDS011;50943;51.448;7.646;2024-03-08T04:13:46;33.50;;;15.83;;
5831;SDS011;50943;51.448;7.646;2024-03-08T04:16:13;39.17;;;17.57;;
5831;SDS011;50943;51.448;7.646;2024-03-08T04:18:40;38.10;;;18.00;;
5831;SDS011;50943;51.448;7.646;2024-03-08T04:21:08;35.60;;;17.90;;
5831;SDS011;50943;51.448;7.646;2024-03-08T04:23:35;37.13;;;17.23;;
5831;SDS011;50943;51.448;7.646;2024-03-08T04:26:02;40.07;;;18.10;;
5831;SDS011;50943;51.448;7.646;2024-03-08T04:28:30;42.87;;;18.67;;
5831;SDS011;50943;51.448;7.646;2024-03-08T04:30:57;30.70;;;14.83;;
5831;SDS011;50943;51.448;7.646;2024-03-08T04:33:25;35.03;;;15.10;;
5831;SDS011;50943;51.448;7.646;2024-03-08T04:35:52;42.60;;;16.57;;
5831;SDS011;50943;51.448;7.646;2024-03-08T04:38:20;37.73;;;16.03;;
5831;SDS011;50943;51.448;7.646;2024-03-08T04:40:46;40.67;;;16.80;;
5831;SDS011;50943;51.448;7.646;2024-03-08T04:43:13;42.37;;;17.57;;
5831;SDS011;50943;51.448;7.646;2024-03-08T04:45:40;38.57;;;17.30;;
5831;SDS011;50943;51.448;7.646;2024-03-08T04:48:08;37.03;;;17.20;;
5831;SDS011;50943;51.448;7.646;2024-03-08T04:50:36;36.13;;;17.90;;
5831;SDS011;50943;51.448;7.646;2024-03-08T04:53:03;42.13;;;17.80;;
5831;SDS011;50943;51.448;7.646;2024-03-08T04:55:34;37.27;;;18.47;;
5831;SDS011;50943;51.448;7.646;2024-03-08T04:58:02;44.37;;;18.43;;
5831;SDS011;50943;51.448;7.646;2024-03-08T05:00:29;39.37;;;17.60;;
5831;SDS011;50943;51.448;7.646;2024-03-08T05:02:56;42.43;;;17.70;;
5831;SDS011;50943;51.448;7.646;2024-03-08T05:05:25;44.83;;;18.37;;
5831;SDS011;50943;51.448;7.646;2024-03-08T05:07:53;38.63;;;17.77;;
5831;SDS011;50943;51.448;7.646;2024-03-08T05:10:20;36.80;;;18.57;;
5831;SDS011;50943;51.448;7.646;2024-03-08T05:12:48;44.57;;;18.10;;
5831;SDS011;50943;51.448;7.646;2024-03-08T05:15:14;44.00;;;17.20;;
5831;SDS011;50943;51.448;7.646;2024-03-08T05:17:41;41.90;;;18.30;;
5831;SDS011;50943;51.448;7.646;2024-03-08T05:20:08;41.23;;;17.37;;
5831;SDS011;50943;51.448;7.646;2024-03-08T05:22:37;38.47;;;17.30;;
5831;SDS011;50943;51.448;7.646;2024-03-08T05:25:05;43.10;;;18.97;;
5831;SDS011;50943;51.448;7.646;2024-03-08T05:27:33;36.70;;;16.47;;
5831;SDS011;50943;51.448;7.646;2024-03-08T05:30:01;42.90;;;18.90;;
5831;SDS011;50943;51.448;7.646;2024-03-08T05:32:29;38.93;;;19.17;;
5831;SDS011;50943;51.448;7.646;2024-03-08T05:34:55;42.43;;;19.03;;
5831;SDS011;50943;51.448;7.646;2024-03-08T05:37:22;45.90;;;19.97;;
5831;SDS011;50943;51.448;7.646;2024-03-08T05:39:48;41.03;;;18.30;;
5831;SDS011;50943;51.448;7.646;2024-03-08T05:42:15;43.47;;;18.43;;
5831;SDS011;50943;51.448;7.646;2024-03-08T05:44:42;45.87;;;19.23;;
5831;SDS011;50943;51.448;7.646;2024-03-08T05:47:10;35.30;;;16.93;;
5831;SDS011;50943;51.448;7.646;2024-03-08T05:49:36;40.73;;;18.43;;
5831;SDS011;50943;51.448;7.646;2024-03-08T05:52:04;42.87;;;18.13;;
5831;SDS011;50943;51.448;7.646;2024-03-08T05:54:33;43.37;;;19.43;;
5831;SDS011;50943;51.448;7.646;2024-03-08T05:57:04;46.07;;;19.80;;
5831;SDS011;50943;51.448;7.646;2024-03-08T05:59:31;39.17;;;18.57;;
5831;SDS011;50943;51.448;7.646;2024-03-08T06:01:58;42.20;;;18.57;;
5831;SDS011;50943;51.448;7.646;2024-03-08T06:04:25;38.57;;;17.20;;
5831;SDS011;50943;51.448;7.646;2024-03-08T06:06:52;40.90;;;18.47;;
5831;SDS011;50943;51.448;7.646;2024-03-08T06:09:20;47.73;;;19.40;;
5831;SDS011;50943;51.448;7.646;2024-03-08T06:11:49;54.43;;;19.77;;
5831;SDS011;50943;51.448;7.646;2024-03-08T06:14:16;47.80;;;18.40;;
5831;SDS011;50943;51.448;7.646;2024-03-08T06:16:43;42.87;;;17.53;;
5831;SDS011;50943;51.448;7.646;2024-03-08T06:19:10;46.73;;;18.63;;
5831;SDS011;50943;51.448;7.646;2024-03-08T06:21:38;40.07;;;18.50;;
5831;SDS011;50943;51.448;7.646;2024-03-08T06:24:05;43.00;;;20.17;;
5831;SDS011;50943;51.448;7.646;2024-03-08T06:26:31;43.13;;;17.57;;
5831;SDS011;50943;51.448;7.646;2024-03-08T06:28:59;37.70;;;17.67;;
5831;SDS011;50943;51.448;7.646;2024-03-08T06:31:25;49.00;;;20.10;;
5831;SDS011;50943;51.448;7.646;2024-03-08T06:33:52;41.63;;;19.00;;
5831;SDS011;50943;51.448;7.646;2024-03-08T06:36:19;42.77;;;18.70;;
5831;SDS011;50943;51.448;7.646;2024-03-08T06:38:48;44.50;;;19.73;;
5831;SDS011;50943;51.448;7.646;2024-03-08T06:41:14;39.77;;;18.83;;
5831;SDS011;50943;51.448;7.646;2024-03-08T06:43:41;48.43;;;20.13;;
5831;SDS011;50943;51.448;7.646;2024-03-08T06:46:08;45.37;;;19.60;;
5831;SDS011;50943;51.448;7.646;2024-03-08T06:48:35;42.13;;;19.50;;
5831;SDS011;50943;51.448;7.646;2024-03-08T06:51:02;47.20;;;19.67;;
5831;SDS011;50943;51.448;7.646;2024-03-08T06:53:29;43.20;;;19.37;;
5831;SDS011;50943;51.448;7.646;2024-03-08T06:55:57;44.50;;;18.67;;
5831;SDS011;50943;51.448;7.646;2024-03-08T06:58:23;49.40;;;19.33;;
5831;SDS011;50943;51.448;7.646;2024-03-08T07:00:50;44.50;;;19.53;;
5831;SDS011;50943;51.448;7.646;2024-03-08T07:03:17;43.37;;;18.30;;
5831;SDS011;50943;51.448;7.646;2024-03-08T07:05:43;42.20;;;18.90;;
5831;SDS011;50943;51.448;7.646;2024-03-08T07:08:10;41.57;;;18.83;;
5831;SDS011;50943;51.448;7.646;2024-03-08T07:10:37;42.53;;;20.10;;
5831;SDS011;50943;51.448;7.646;2024-03-08T07:13:06;36.83;;;18.13;;
5831;SDS011;50943;51.448;7.646;2024-03-08T07:15:32;46.67;;;20.30;;
5831;SDS011;50943;51.448;7.646;2024-03-08T07:18:00;42.80;;;19.83;;
5831;SDS011;50943;51.448;7.646;2024-03-08T07:20:27;45.30;;;20.73;;
5831;SDS011;50943;51.448;7.646;2024-03-08T07:22:53;46.57;;;20.67;;
5831;SDS011;50943;51.448;7.646;2024-03-08T07:25:20;35.23;;;18.50;;
5831;SDS011;50943;51.448;7.646;2024-03-08T07:27:47;45.97;;;19.23;;
5831;SDS011;50943;51.448;7.646;2024-03-08T07:30:15;41.30;;;18.20;;
5831;SDS011;50943;51.448;7.646;2024-03-08T07:32:58;37.37;;;18.37;;
5831;SDS011;50943;51.448;7.646;2024-03-08T07:35:27;41.83;;;19.43;;
5831;SDS011;50943;51.448;7.646;2024-03-08T07:37:53;45.80;;;19.07;;
5831;SDS011;50943;51.448;7.646;2024-03-08T07:40:20;39.17;;;19.90;;
5831;SDS011;50943;51.448;7.646;2024-03-08T07:42:48;41.43;;;18.60;;
5831;SDS011;50943;51.448;7.646;2024-03-08T07:45:16;40.60;;;18.93;;
5831;SDS011;50943;51.448;7.646;2024-03-08T07:47:42;47.30;;;20.07;;
5831;SDS011;50943;51.448;7.646;2024-03-08T07:50:09;36.73;;;19.03;;
5831;SDS011;50943;51.448;7.646;2024-03-08T07:52:36;40.63;;;20.60;;
5831;SDS011;50943;51.448;7.646;2024-03-08T07:55:03;38.27;;;18.10;;
5831;SDS011;50943;51.448;7.646;2024-03-08T07:57:30;53.33;;;19.83;;
5831;SDS011;50943;51.448;7.646;2024-03-08T07:59:58;36.37;;;19.33;;
5831;SDS011;50943;51.448;7.646;2024-03-08T08:02:26;41.03;;;20.07;;
5831;SDS011;50943;51.448;7.646;2024-03-08T08:04:52;41.27;;;21.00;;
5831;SDS011;50943;51.448;7.646;2024-03-08T08:07:19;39.13;;;18.30;;
5831;SDS011;50943;51.448;7.646;2024-03-08T08:09:48;39.57;;;19.40;;
5831;SDS011;50943;51.448;7.646;2024-03-08T08:12:14;48.10;;;19.27;;
5831;SDS011;50943;51.448;7.646;2024-03-08T08:14:41;36.83;;;17.53;;
5831;SDS011;50943;51.448;7.646;2024-03-08T08:17:08;35.03;;;17.37;;
5831;SDS011;50943;51.448;7.646;2024-03-08T08:19:40;36.90;;;18.93;;
5831;SDS011;50943;51.448;7.646;2024-03-08T08:22:07;40.13;;;19.67;;
5831;SDS011;50943;51.448;7.646;2024-03-08T08:24:34;39.10;;;19.13;;
5831;SDS011;50943;51.448;7.646;2024-03-08T08:27:01;34.73;;;18.53;;
5831;SDS011;50943;51.448;7.646;2024-03-08T08:29:28;35.90;;;18.00;;
5831;SDS011;50943;51.448;7.646;2024-03-08T08:31:56;35.73;;;17.93;;
5831;SDS011;50943;51.448;7.646;2024-03-08T08:34:24;37.30;;;18.90;;
5831;SDS011;50943;51.448;7.646;2024-03-08T08:36:52;37.83;;;19.53;;
5831;SDS011;50943;51.448;7.646;2024-03-08T08:39:19;42.30;;;20.50;;
5831;SDS011;50943;51.448;7.646;2024-03-08T08:41:47;35.40;;;17.77;;
5831;SDS011;50943;51.448;7.646;2024-03-08T08:44:14;36.73;;;18.73;;
5831;SDS011;50943;51.448;7.646;2024-03-08T08:46:41;39.17;;;19.73;;
5831;SDS011;50943;51.448;7.646;2024-03-08T08:49:07;38.47;;;19.50;;
5831;SDS011;50943;51.448;7.646;2024-03-08T08:51:35;41.17;;;18.70;;
5831;SDS011;50943;51.448;7.646;2024-03-08T08:54:03;39.53;;;19.30;;
5831;SDS011;50943;51.448;7.646;2024-03-08T08:56:31;35.40;;;19.10;;
5831;SDS011;50943;51.448;7.646;2024-03-08T08:58:58;38.60;;;18.77;;
5831;SDS011;50943;51.448;7.646;2024-03-08T09:01:24;38.60;;;19.40;;
5831;SDS011;50943;51.448;7.646;2024-03-08T09:03:51;36.23;;;19.00;;
5831;SDS011;50943;51.448;7.646;2024-03-08T09:06:17;33.33;;;17.23;;
5831;SDS011;50943;51.448;7.646;2024-03-08T09:08:44;37.80;;;19.20;;
5831;SDS011;50943;51.448;7.646;2024-03-08T09:11:12;39.70;;;20.07;;
5831;SDS011;50943;51.448;7.646;2024-03-08T09:13:38;29.53;;;17.03;;
5831;SDS011;50943;51.448;7.646;2024-03-08T09:16:07;34.10;;;18.83;;
5831;SDS011;50943;51.448;7.646;2024-03-08T09:18:36;35.57;;;19.93;;
5831;SDS011;50943;51.448;7.646;2024-03-08T09:21:02;33.97;;;18.90;;
5831;SDS011;50943;51.448;7.646;2024-03-08T09:23:34;38.37;;;20.50;;
5831;SDS011;50943;51.448;7.646;2024-03-08T09:26:01;30.60;;;18.50;;
5831;SDS011;50943;51.448;7.646;2024-03-08T09:28:30;31.90;;;18.73;;
5831;SDS011;50943;51.448;7.646;2024-03-08T09:30:57;41.27;;;19.37;;
5831;SDS011;50943;51.448;7.646;2024-03-08T09:33:26;33.43;;;18.57;;
5831;SDS011;50943;51.448;7.646;2024-03-08T09:35:53;34.13;;;17.80;;
5831;SDS011;50943;51.448;7.646;2024-03-08T09:38:22;34.40;;;18.87;;
5831;SDS011;50943;51.448;7.646;2024-03-08T09:40:51;38.50;;;19.10;;
5831;SDS011;50943;51.448;7.646;2024-03-08T09:43:18;33.53;;;19.30;;
5831;SDS011;50943;51.448;7.646;2024-03-08T09:45:46;32.23;;;19.23;;
5831;SDS011;50943;51.448;7.646;2024-03-08T09:48:16;38.63;;;19.30;;
5831;SDS011;50943;51.448;7.646;2024-03-08T09:50:44;31.70;;;18.93;;
5831;SDS011;50943;51.448;7.646;2024-03-08T09:53:10;38.93;;;19.83;;
5831;SDS011;50943;51.448;7.646;2024-03-08T09:55:41;31.60;;;19.60;;
5831;SDS011;50943;51.448;7.646;2024-03-08T09:58:10;35.50;;;20.60;;
5831;SDS011;50943;51.448;7.646;2024-03-08T10:01:02;31.60;;;19.40;;
5831;SDS011;50943;51.448;7.646;2024-03-08T10:03:29;35.67;;;20.47;;
5831;SDS011;50943;51.448;7.646;2024-03-08T10:05:57;34.53;;;19.87;;
5831;SDS011;50943;51.448;7.646;2024-03-08T10:08:25;32.37;;;18.00;;
5831;SDS011;50943;51.448;7.646;2024-03-08T10:10:51;33.67;;;18.93;;
5831;SDS011;50943;51.448;7.646;2024-03-08T10:13:18;33.20;;;20.27;;
5831;SDS011;50943;51.448;7.646;2024-03-08T10:15:45;30.77;;;18.63;;
5831;SDS011;50943;51.448;7.646;2024-03-08T10:18:13;36.93;;;20.70;;
5831;SDS011;50943;51.448;7.646;2024-03-08T10:20:40;36.80;;;20.80;;
5831;SDS011;50943;51.448;7.646;2024-03-08T10:23:08;30.30;;;19.83;;
5831;SDS011;50943;51.448;7.646;2024-03-08T10:25:35;33.90;;;20.90;;
5831;SDS011;50943;51.448;7.646;2024-03-08T10:28:02;29.83;;;20.13;;
5831;SDS011;50943;51.448;7.646;2024-03-08T10:30:30;32.37;;;19.77;;
5831;SDS011;50943;51.448;7.646;2024-03-08T10:32:57;31.70;;;21.50;;
5831;SDS011;50943;51.448;7.646;2024-03-08T10:35:25;29.10;;;20.03;;
5831;SDS011;50943;51.448;7.646;2024-03-08T10:37:52;30.37;;;19.53;;
5831;SDS011;50943;51.448;7.646;2024-03-08T10:40:24;28.07;;;19.30;;
5831;SDS011;50943;51.448;7.646;2024-03-08T10:42:52;29.53;;;20.53;;
5831;SDS011;50943;51.448;7.646;2024-03-08T10:45:23;31.97;;;20.90;;
5831;SDS011;50943;51.448;7.646;2024-03-08T10:48:08;30.27;;;20.93;;
5831;SDS011;50943;51.448;7.646;2024-03-08T10:50:42;30.20;;;20.30;;
5831;SDS011;50943;51.448;7.646;2024-03-08T10:53:10;24.53;;;18.23;;
5831;SDS011;50943;51.448;7.646;2024-03-08T10:55:37;31.30;;;18.00;;
5831;SDS011;50943;51.448;7.646;2024-03-08T10:58:06;20.87;;;15.00;;
5831;SDS011;50943;51.448;7.646;2024-03-08T11:00:33;17.17;;;10.70;;
5831;SDS011;50943;51.448;7.646;2024-03-08T11:03:00;14.37;;;10.07;;
5831;SDS011;50943;51.448;7.646;2024-03-08T11:05:31;18.43;;;10.27;;
5831;SDS011;50943;51.448;7.646;2024-03-08T11:08:01;14.23;;;9.83;;
5831;SDS011;50943;51.448;7.646;2024-03-08T11:10:29;13.50;;;8.90;;
5831;SDS011;50943;51.448;7.646;2024-03-08T11:12:56;14.10;;;9.47;;
5831;SDS011;50943;51.448;7.646;2024-03-08T11:15:24;14.50;;;10.30;;
5831;SDS011;50943;51.448;7.646;2024-03-08T11:17:50;16.33;;;10.30;;
5831;SDS011;50943;51.448;7.646;2024-03-08T11:20:20;15.10;;;9.97;;
5831;SDS011;50943;51.448;7.646;2024-03-08T11:22:50;13.83;;;9.73;;
5831;SDS011;50943;51.448;7.646;2024-03-08T11:25:32;14.80;;;9.63;;
5831;SDS011;50943;51.448;7.646;2024-03-08T11:33:50;14.67;;;9.63;;
5831;SDS011;50943;51.448;7.646;2024-03-08T11:36:20;15.20;;;8.60;;
5831;SDS011;50943;51.448;7.646;2024-03-08T11:38:48;14.63;;;9.13;;
5831;SDS011;50943;51.448;7.646;2024-03-08T11:41:18;13.43;;;8.90;;
5831;SDS011;50943;51.448;7.646;2024-03-08T11:43:45;12.20;;;9.57;;
5831;SDS011;50943;51.448;7.646;2024-03-08T11:46:12;11.87;;;8.00;;
5831;SDS011;50943;51.448;7.646;2024-03-08T11:48:39;13.60;;;8.80;;
5831;SDS011;50943;51.448;7.646;2024-03-08T11:51:06;13.40;;;9.20;;
5831;SDS011;50943;51.448;7.646;2024-03-08T11:53:33;13.40;;;8.90;;
5831;SDS011;50943;51.448;7.646;2024-03-08T11:56:05;15.90;;;9.40;;
5831;SDS011;50943;51.448;7.646;2024-03-08T11:58:37;12.80;;;9.00;;
5831;SDS011;50943;51.448;7.646;2024-03-08T12:01:05;13.70;;;9.27;;
5831;SDS011;50943;51.448;7.646;2024-03-08T12:03:32;12.57;;;9.47;;
5831;SDS011;50943;51.448;7.646;2024-03-08T12:05:59;14.43;;;10.40;;
5831;SDS011;50943;51.448;7.646;2024-03-08T12:08:26;12.23;;;9.00;;
5831;SDS011;50943;51.448;7.646;2024-03-08T12:10:53;13.17;;;9.30;;
5831;SDS011;50943;51.448;7.646;2024-03-08T12:13:24;11.80;;;9.60;;
5831;SDS011;50943;51.448;7.646;2024-03-08T12:15:52;14.10;;;9.93;;
5831;SDS011;50943;51.448;7.646;2024-03-08T12:18:19;12.87;;;9.70;;
5831;SDS011;50943;51.448;7.646;2024-03-08T12:20:48;10.87;;;8.50;;
5831;SDS011;50943;51.448;7.646;2024-03-08T12:23:15;10.30;;;8.30;;
5831;SDS011;50943;51.448;7.646;2024-03-08T12:25:42;10.43;;;8.67;;
5831;SDS011;50943;51.448;7.646;2024-03-08T12:28:09;12.70;;;9.90;;
5831;SDS011;50943;51.448;7.646;2024-03-08T12:30:45;12.17;;;8.80;;
5831;SDS011;50943;51.448;7.646;2024-03-08T12:33:14;13.10;;;8.60;;
5831;SDS011;50943;51.448;7.646;2024-03-08T12:35:49;13.07;;;9.70;;
5831;SDS011;50943;51.448;7.646;2024-03-08T12:38:18;16.20;;;10.17;;
5831;SDS011;50943;51.448;7.646;2024-03-08T12:40:49;11.47;;;8.77;;
5831;SDS011;50943;51.448;7.646;2024-03-08T12:43:15;11.67;;;9.33;;
5831;SDS011;50943;51.448;7.646;2024-03-08T12:45:43;14.10;;;10.17;;
5831;SDS011;50943;51.448;7.646;2024-03-08T12:48:12;17.83;;;10.70;;
5831;SDS011;50943;51.448;7.646;2024-03-08T12:50:41;12.57;;;9.30;;
5831;SDS011;50943;51.448;7.646;2024-03-08T12:53:10;15.97;;;9.20;;
5831;SDS011;50943;51.448;7.646;2024-03-08T12:55:37;12.70;;;8.57;;
5831;SDS011;50943;51.448;7.646;2024-03-08T12:58:04;13.70;;;9.37;;
5831;SDS011;50943;51.448;7.646;2024-03-08T13:00:32;13.00;;;10.20;;
5831;SDS011;50943;51.448;7.646;2024-03-08T13:03:01;16.87;;;10.40;;
5831;SDS011;50943;51.448;7.646;2024-03-08T13:05:28;17.40;;;10.03;;
5831;SDS011;50943;51.448;7.646;2024-03-08T13:07:56;12.77;;;9.60;;
5831;SDS011;50943;51.448;7.646;2024-03-08T13:10:29;12.37;;;9.97;;
5831;SDS011;50943;51.448;7.646;2024-03-08T13:12:56;14.27;;;9.80;;
5831;SDS011;50943;51.448;7.646;2024-03-08T13:15:22;14.50;;;10.20;;
5831;SDS011;50943;51.448;7.646;2024-03-08T13:17:49;13.73;;;9.10;;
5831;SDS011;50943;51.448;7.646;2024-03-08T13:20:16;14.20;;;10.50;;
5831;SDS011;50943;51.448;7.646;2024-03-08T13:22:44;15.07;;;9.70;;
5831;SDS011;50943;51.448;7.646;2024-03-08T13:25:13;13.83;;;10.57;;
5831;SDS011;50943;51.448;7.646;2024-03-08T13:27:39;15.20;;;10.60;;
5831;SDS011;50943;51.448;7.646;2024-03-08T13:30:07;14.10;;;10.50;;
5831;SDS011;50943;51.448;7.646;2024-03-08T13:32:38;14.23;;;10.00;;
5831;SDS011;50943;51.448;7.646;2024-03-08T13:35:05;16.60;;;11.80;;
5831;SDS011;50943;51.448;7.646;2024-03-08T13:37:37;18.00;;;11.80;;
5831;SDS011;50943;51.448;7.646;2024-03-08T13:40:05;14.87;;;10.73;;
5831;SDS011;50943;51.448;7.646;2024-03-08T13:42:37;15.57;;;10.17;;
5831;SDS011;50943;51.448;7.646;2024-03-08T13:45:05;12.90;;;9.80;;
5831;SDS011;50943;51.448;7.646;2024-03-08T13:47:34;16.40;;;11.87;;
5831;SDS011;50943;51.448;7.646;2024-03-08T13:50:01;15.03;;;11.17;;
5831;SDS011;50943;51.448;7.646;2024-03-08T13:52:27;14.90;;;10.90;;
5831;SDS011;50943;51.448;7.646;2024-03-08T13:54:54;14.43;;;10.80;;
5831;SDS011;50943;51.448;7.646;2024-03-08T13:57:21;16.43;;;11.37;;
5831;SDS011;50943;51.448;7.646;2024-03-08T13:59:49;17.00;;;12.10;;
5831;SDS011;50943;51.448;7.646;2024-03-08T14:02:16;17.30;;;12.30;;
5831;SDS011;50943;51.448;7.646;2024-03-08T14:04:43;16.60;;;12.53;;
5831;SDS011;50943;51.448;7.646;2024-03-08T14:07:09;16.93;;;11.87;;
5831;SDS011;50943;51.448;7.646;2024-03-08T14:09:36;20.13;;;11.90;;
5831;SDS011;50943;51.448;7.646;2024-03-08T14:12:02;19.40;;;12.67;;
5831;SDS011;50943;51.448;7.646;2024-03-08T14:14:32;17.30;;;12.13;;
5831;SDS011;50943;51.448;7.646;2024-03-08T14:17:01;15.00;;;10.90;;
5831;SDS011;50943;51.448;7.646;2024-03-08T14:19:29;18.97;;;11.97;;
5831;SDS011;50943;51.448;7.646;2024-03-08T14:21:56;23.00;;;14.63;;
5831;SDS011;50943;51.448;7.646;2024-03-08T14:24:24;15.80;;;11.63;;
5831;SDS011;50943;51.448;7.646;2024-03-08T14:26:51;20.10;;;12.77;;
5831;SDS011;50943;51.448;7.646;2024-03-08T14:29:17;15.83;;;10.77;;
5831;SDS011;50943;51.448;7.646;2024-03-08T14:31:44;15.40;;;11.90;;
5831;SDS011;50943;51.448;7.646;2024-03-08T14:34:12;18.80;;;11.80;;
5831;SDS011;50943;51.448;7.646;2024-03-08T14:36:39;17.70;;;12.33;;
5831;SDS011;50943;51.448;7.646;2024-03-08T14:39:06;19.70;;;12.53;;
5831;SDS011;50943;51.448;7.646;2024-03-08T14:41:33;15.97;;;12.13;;
5831;SDS011;50943;51.448;7.646;2024-03-08T14:43:59;15.57;;;12.30;;